createdAt,value
2023-04-25T05:38:01.256Z,18.40
2023-04-25T05:40:53.866Z,18.44
2023-04-25T05:43:48.356Z,18.46
2023-04-25T05:46:26.896Z,18.46
2023-04-25T05:49:19.612Z,18.42
2023-04-25T05:52:28.166Z,18.42
2023-04-25T05:55:08.016Z,18.41
2023-04-25T05:57:38.553Z,18.43
2023-04-25T06:00:11.570Z,18.41
2023-04-25T06:02:50.512Z,18.41
2023-04-25T06:05:20.597Z,18.44
2023-04-25T06:07:54.755Z,18.46
2023-04-25T06:10:45.666Z,18.49
2023-04-25T06:13:18.539Z,18.48
2023-04-25T06:15:47.278Z,18.49
2023-04-25T06:18:16.642Z,18.49
2023-04-25T06:20:45.318Z,18.49
2023-04-25T06:23:14.902Z,18.50
2023-04-25T06:25:57.383Z,18.37
2023-04-25T06:28:27.612Z,18.15
2023-04-25T06:30:57.942Z,18.25
2023-04-25T06:33:26.186Z,18.34
2023-04-25T06:36:03.462Z,18.39
2023-04-25T06:38:36.546Z,18.42
2023-04-25T06:41:04.871Z,18.44
2023-04-25T06:43:38.424Z,18.44
2023-04-25T06:46:28.660Z,18.46
2023-04-25T06:48:59.884Z,18.47
2023-04-25T06:51:32.004Z,18.48
2023-04-25T06:54:00.851Z,18.49
2023-04-25T06:56:39.758Z,18.49
2023-04-25T06:59:24.827Z,18.50
2023-04-25T07:02:04.290Z,18.50
2023-04-25T07:04:47.893Z,18.51
2023-04-25T07:07:32.620Z,18.51
2023-04-25T07:10:36.886Z,18.52
2023-04-25T07:17:30.438Z,18.52
2023-04-25T07:20:34.320Z,18.53
2023-04-25T07:26:48.977Z,18.54
2023-04-25T08:06:53.103Z,18.55
2023-04-25T08:09:42.274Z,18.54
2023-04-25T08:17:07.929Z,18.57
2023-04-25T08:24:09.526Z,18.57
2023-04-25T08:27:13.709Z,18.56
2023-04-25T08:30:12.621Z,18.57
2023-04-25T08:33:03.839Z,18.57
2023-04-25T08:36:11.953Z,18.57
2023-04-25T08:39:02.299Z,18.58
2023-04-25T08:45:35.070Z,18.57
2023-04-25T08:48:05.815Z,18.56
2023-04-25T08:50:58.672Z,18.57
2023-04-25T08:54:30.705Z,18.57
2023-04-25T09:09:42.554Z,18.60
2023-04-25T09:54:07.498Z,18.59
2023-04-25T09:56:44.964Z,18.58
2023-04-25T09:59:25.939Z,18.58
2023-04-25T10:02:08.256Z,18.59
2023-04-25T10:05:11.225Z,18.58
2023-04-25T10:29:20.690Z,18.59
2023-04-25T10:32:33.287Z,18.58
2023-04-25T10:35:34.332Z,18.58
2023-04-25T10:38:13.964Z,18.58
2023-04-25T10:41:34.110Z,18.57
2023-04-25T10:47:51.678Z,18.58
2023-04-25T10:51:01.873Z,18.58
2023-04-25T10:53:36.312Z,18.56
2023-04-25T10:56:14.570Z,18.56
2023-04-25T10:58:48.718Z,18.55
2023-04-25T11:01:22.327Z,18.54
2023-04-25T11:04:03.718Z,18.54
2023-04-25T11:06:53.734Z,18.55
2023-04-25T11:09:27.620Z,18.55
2023-04-25T11:11:56.084Z,18.55
2023-04-25T11:14:24.250Z,18.56
2023-04-25T11:16:55.103Z,18.57
2023-04-25T11:19:23.102Z,18.59
2023-04-25T11:21:55.407Z,18.58
2023-04-25T11:24:24.184Z,18.58
2023-04-25T11:26:55.374Z,18.56
2023-04-25T11:29:24.591Z,18.56
2023-04-25T11:31:53.161Z,18.56
2023-04-25T11:34:23.177Z,18.55
2023-04-25T11:37:04.114Z,18.56
2023-04-25T11:39:34.259Z,18.58
2023-04-25T11:42:12.111Z,18.58
2023-04-25T11:44:45.174Z,18.58
2023-04-25T11:47:16.710Z,18.57
2023-04-25T11:49:44.768Z,18.57
2023-04-25T11:52:16.743Z,18.56
2023-04-25T11:54:44.729Z,18.56
2023-04-25T11:57:12.816Z,18.57
2023-04-25T11:59:41.508Z,18.55
2023-04-25T12:02:51.563Z,18.54
2023-04-25T12:07:57.605Z,18.57
2023-04-25T12:10:30.096Z,18.56
2023-04-25T12:13:01.576Z,18.56
2023-04-25T12:15:29.850Z,18.57
2023-04-25T12:17:58.113Z,18.55
2023-04-25T12:20:27.059Z,18.54
2023-04-25T12:22:56.822Z,18.56
2023-04-25T12:25:39.560Z,18.55
2023-04-25T12:28:20.069Z,18.55
2023-04-25T12:30:57.652Z,18.57
2023-04-25T12:33:25.829Z,18.58
2023-04-25T12:35:55.924Z,18.58
2023-04-25T12:38:25.961Z,18.57
2023-04-25T12:40:53.998Z,18.57
2023-04-25T12:43:22.875Z,18.57
2023-04-25T12:45:52.047Z,18.56
2023-04-25T12:48:20.115Z,18.55
2023-04-25T12:50:50.223Z,18.55
2023-04-25T12:53:18.294Z,18.53
2023-04-25T12:55:50.230Z,18.54
2023-04-25T12:58:18.558Z,18.56
2023-04-25T13:00:46.829Z,18.56
2023-04-25T13:03:15.011Z,18.56
2023-04-25T13:05:56.873Z,18.55
2023-04-25T13:08:37.875Z,18.55
2023-04-25T13:11:07.562Z,18.55
2023-04-25T13:13:35.863Z,18.54
2023-04-25T13:16:09.625Z,18.52
2023-04-25T13:18:37.899Z,18.51
2023-04-25T13:21:14.624Z,18.53
2023-04-25T13:23:43.899Z,18.55
2023-04-25T13:26:15.401Z,18.55
2023-04-25T13:28:44.960Z,18.55
2023-04-25T13:31:14.942Z,18.55
2023-04-25T13:33:42.986Z,18.55
2023-04-25T13:36:11.302Z,18.55
2023-04-25T13:38:40.096Z,18.55
2023-04-25T13:41:11.301Z,18.55
2023-04-25T13:43:42.333Z,18.54
2023-04-25T13:46:30.164Z,18.55
2023-04-25T13:49:11.482Z,18.57
2023-04-25T13:51:41.347Z,18.57
2023-04-25T13:54:09.911Z,18.58
2023-04-25T13:56:38.331Z,18.56
2023-04-25T13:59:11.985Z,18.56
2023-04-25T14:01:40.600Z,18.57
2023-04-25T14:04:13.865Z,18.57
2023-04-25T14:06:47.211Z,18.56
2023-04-25T14:09:23.489Z,18.57
2023-04-25T14:12:11.525Z,18.56
2023-04-25T14:14:45.722Z,18.58
2023-04-25T14:17:23.574Z,18.57
2023-04-25T14:20:03.410Z,18.56
2023-04-25T14:22:35.938Z,18.56
2023-04-25T14:25:21.645Z,18.55
2023-04-25T14:27:51.231Z,18.56
2023-04-25T14:30:21.051Z,18.55
2023-04-25T14:32:50.113Z,18.55
2023-04-25T14:35:59.811Z,18.55
2023-04-25T14:38:30.770Z,18.54
2023-04-25T14:41:00.149Z,18.56
2023-04-25T14:43:38.629Z,18.55
2023-04-25T14:46:15.336Z,18.56
2023-04-25T14:49:11.738Z,18.56
2023-04-25T14:51:51.754Z,18.57
2023-04-25T14:59:08.546Z,18.56
2023-04-25T15:01:41.499Z,18.55
2023-04-25T15:04:18.954Z,18.58
2023-04-25T15:06:48.431Z,18.58
2023-04-25T15:09:25.172Z,18.58
2023-04-25T15:19:37.720Z,18.56
2023-04-25T15:22:07.747Z,18.54
2023-04-25T15:24:36.794Z,18.56
2023-04-25T15:27:11.767Z,18.56
2023-04-25T15:34:12.276Z,18.58
2023-04-25T15:42:08.214Z,18.57
2023-04-25T19:09:43.911Z,18.55
2023-04-25T19:12:48.188Z,18.55
2023-04-25T19:15:18.678Z,18.54
2023-04-25T19:17:50.401Z,18.53
2023-04-25T19:20:21.005Z,18.53
2023-04-25T19:23:29.647Z,18.53
2023-04-25T19:26:18.296Z,18.54
2023-04-25T20:20:01.977Z,18.51
2023-04-25T20:22:58.124Z,18.51
2023-04-25T20:26:14.284Z,18.50
2023-04-25T20:28:48.454Z,18.50
2023-04-25T20:31:28.618Z,18.48
2023-04-25T20:34:03.055Z,18.47
2023-04-25T20:37:23.001Z,18.47
2023-04-25T20:43:25.799Z,18.49
2023-04-25T20:52:53.110Z,18.47
2023-04-25T21:02:51.913Z,18.47
2023-04-25T21:10:14.134Z,18.51
2023-04-25T21:13:29.977Z,18.51
2023-04-25T22:11:48.586Z,18.49
2023-04-25T22:14:51.062Z,18.49
2023-04-25T22:17:31.260Z,18.47
2023-04-25T22:20:32.984Z,18.47
2023-04-25T22:23:23.534Z,18.48
2023-04-25T22:29:21.963Z,18.50
2023-04-25T22:32:17.642Z,18.49
2023-04-25T22:35:02.047Z,18.49
2023-04-25T22:37:30.445Z,18.50
2023-04-25T23:35:21.301Z,18.43
2023-04-25T23:38:30.449Z,18.43
2023-04-25T23:41:04.827Z,18.43
2023-04-25T23:43:34.993Z,18.43
2023-04-25T23:46:13.713Z,18.43
2023-04-25T23:48:44.541Z,18.42
2023-04-25T23:51:27.238Z,18.42
2023-04-25T23:57:53.231Z,18.41
